Time;durP1;ratioP1;P1;durP2;ratioP2;P2;SDS_P1;SDS_P2;PMS_P1;PMS_P2;Temp;Humidity;BMP_temperature;BMP_pressure;BME280_temperature;BME280_humidity;BME280_pressure;Samples;Min_cycle;Max_cycle;Signal;HPM_P1;HPM_P2
2023/09/14 00:01:44;;;;;;;2.90;1.10;;;;;;;;;;5069905;28;41376;-71
2023/09/14 00:04:13;;;;;;;2.65;0.90;;;;;;;;;;5069628;28;41663;-71
2023/09/14 00:06:42;;;;;;;1.95;0.90;;;;;;;;;;5070173;28;40499;-71
2023/09/14 00:09:10;;;;;;;2.20;0.95;;;;;;;;;;5070299;28;41693;-71
2023/09/14 00:11:40;;;;;;;1.63;0.70;;;;;;;;;;5068946;28;42219;-71
2023/09/14 00:14:08;;;;;;;1.73;0.80;;;;;;;;;;5070626;28;40580;-71
2023/09/14 00:16:36;;;;;;;1.38;0.80;;;;;;;;;;5069492;28;43165;-71
2023/09/14 00:19:04;;;;;;;2.28;1.20;;;;;;;;;;5070063;28;40903;-71
2023/09/14 00:21:32;;;;;;;1.98;0.90;;;;;;;;;;5066820;28;41439;-71
2023/09/14 00:24:00;;;;;;;1.58;0.80;;;;;;;;;;5055565;28;43169;-71
2023/09/14 00:26:28;;;;;;;1.85;0.68;;;;;;;;;;5068864;28;41078;-71
2023/09/14 00:28:58;;;;;;;1.77;0.68;;;;;;;;;;5070119;28;41861;-71
2023/09/14 00:31:25;;;;;;;1.42;0.70;;;;;;;;;;5069469;28;42021;-71
2023/09/14 00:33:55;;;;;;;1.80;0.85;;;;;;;;;;5069568;28;41265;-71
2023/09/14 00:36:23;;;;;;;1.55;0.80;;;;;;;;;;5069790;28;41706;-71
2023/09/14 00:38:51;;;;;;;0.80;0.60;;;;;;;;;;5069007;28;41347;-71
2023/09/14 00:41:19;;;;;;;1.15;0.75;;;;;;;;;;5068611;28;40964;-71
2023/09/14 00:43:47;;;;;;;2.03;1.02;;;;;;;;;;5063262;28;42763;-71
2023/09/14 00:46:16;;;;;;;1.38;0.70;;;;;;;;;;5069412;28;41339;-71
2023/09/14 00:48:44;;;;;;;2.65;0.90;;;;;;;;;;5069324;28;42361;-71
2023/09/14 00:51:13;;;;;;;1.75;0.88;;;;;;;;;;5068199;28;42639;-71
2023/09/14 00:53:41;;;;;;;1.08;0.75;;;;;;;;;;5067366;28;40579;-71
2023/09/14 00:56:09;;;;;;;2.17;0.80;;;;;;;;;;5068644;28;42354;-71
2023/09/14 00:58:37;;;;;;;0.95;0.63;;;;;;;;;;5067512;28;39103;-71
2023/09/14 01:01:06;;;;;;;1.83;0.80;;;;;;;;;;5068745;28;41521;-71
2023/09/14 01:03:35;;;;;;;1.20;0.70;;;;;;;;;;5068515;28;43073;-71
2023/09/14 01:06:03;;;;;;;1.70;0.65;;;;;;;;;;5063936;28;41387;-71
2023/09/14 01:08:32;;;;;;;2.00;0.70;;;;;;;;;;5068535;28;41303;-71
2023/09/14 01:11:01;;;;;;;1.10;0.60;;;;;;;;;;5069679;28;41959;-71
2023/09/14 01:13:30;;;;;;;0.65;0.43;;;;;;;;;;5066897;28;39383;-71
2023/09/14 01:16:00;;;;;;;0.75;0.50;;;;;;;;;;5064934;28;42391;-71
2023/09/14 01:18:30;;;;;;;2.85;0.60;;;;;;;;;;5069029;28;42135;-71
2023/09/14 01:21:20;;;;;;;2.53;0.52;;;;;;;;;;5067565;28;40922;-71
2023/09/14 01:23:53;;;;;;;0.93;0.60;;;;;;;;;;5063090;28;42178;-71
2023/09/14 01:26:23;;;;;;;1.33;0.85;;;;;;;;;;5059445;28;41337;-71
2023/09/14 01:28:51;;;;;;;1.67;0.68;;;;;;;;;;5066341;28;41460;-71
2023/09/14 01:31:18;;;;;;;2.60;1.10;;;;;;;;;;5068501;28;40859;-71
2023/09/14 01:33:48;;;;;;;0.80;0.60;;;;;;;;;;5067766;28;40830;-71
2023/09/14 01:36:18;;;;;;;1.40;0.77;;;;;;;;;;5067361;28;40738;-71
2023/09/14 01:38:46;;;;;;;0.82;0.50;;;;;;;;;;5067158;28;41552;-71
2023/09/14 01:41:15;;;;;;;1.00;0.80;;;;;;;;;;5068172;28;42209;-71
2023/09/14 01:43:44;;;;;;;1.10;0.60;;;;;;;;;;5067171;28;40955;-71
2023/09/14 01:46:12;;;;;;;1.27;0.60;;;;;;;;;;5068755;28;39075;-71
2023/09/14 01:48:41;;;;;;;0.85;0.60;;;;;;;;;;5068654;28;41615;-71
2023/09/14 01:51:09;;;;;;;0.95;0.55;;;;;;;;;;5067663;28;41957;-71
2023/09/14 01:53:37;;;;;;;1.90;0.80;;;;;;;;;;5068643;28;40502;-71
2023/09/14 01:56:05;;;;;;;1.75;0.55;;;;;;;;;;5068568;28;42342;-71
2023/09/14 01:58:35;;;;;;;1.00;0.60;;;;;;;;;;5056862;28;39548;-71
2023/09/14 02:01:05;;;;;;;0.95;0.60;;;;;;;;;;5066702;28;39091;-71
2023/09/14 02:03:34;;;;;;;0.95;0.60;;;;;;;;;;5056935;28;38740;-71
2023/09/14 02:06:02;;;;;;;1.02;0.52;;;;;;;;;;5068149;28;40971;-71
2023/09/14 02:08:30;;;;;;;1.00;0.55;;;;;;;;;;5067287;28;42060;-71
2023/09/14 02:10:58;;;;;;;0.60;0.50;;;;;;;;;;5067500;28;42851;-71
2023/09/14 02:13:30;;;;;;;1.38;0.70;;;;;;;;;;5062917;28;40461;-72
2023/09/14 02:15:58;;;;;;;1.60;0.70;;;;;;;;;;5067220;28;41497;-71
2023/09/14 02:18:27;;;;;;;1.17;0.55;;;;;;;;;;5067329;28;42105;-71
2023/09/14 02:20:55;;;;;;;0.90;0.57;;;;;;;;;;5067050;28;40063;-71
2023/09/14 02:23:23;;;;;;;0.90;0.68;;;;;;;;;;5067381;28;42594;-71
2023/09/14 02:25:51;;;;;;;1.75;0.77;;;;;;;;;;5067308;28;40532;-71
2023/09/14 02:28:20;;;;;;;0.93;0.70;;;;;;;;;;5066576;28;41200;-71
2023/09/14 02:30:48;;;;;;;2.33;0.80;;;;;;;;;;5067654;28;43075;-71
2023/09/14 02:33:17;;;;;;;1.80;0.80;;;;;;;;;;5100041;28;38692;-71
2023/09/14 02:35:50;;;;;;;1.35;0.65;;;;;;;;;;5067365;28;41625;-71
2023/09/14 02:38:19;;;;;;;1.63;0.90;;;;;;;;;;5066376;28;40649;-71
2023/09/14 02:40:47;;;;;;;2.08;0.93;;;;;;;;;;5067887;28;40757;-71
2023/09/14 02:43:16;;;;;;;1.00;0.43;;;;;;;;;;5068065;28;41976;-71
2023/09/14 02:45:44;;;;;;;1.92;0.60;;;;;;;;;;5065864;28;41196;-71
2023/09/14 02:48:13;;;;;;;1.13;0.65;;;;;;;;;;5067442;28;39859;-71
2023/09/14 02:50:41;;;;;;;0.77;0.63;;;;;;;;;;5067001;28;41722;-71
2023/09/14 02:53:11;;;;;;;5.82;0.77;;;;;;;;;;5067294;28;40211;-71
2023/09/14 02:55:40;;;;;;;0.70;0.50;;;;;;;;;;5066077;28;42208;-71
2023/09/14 02:58:08;;;;;;;0.70;0.60;;;;;;;;;;5066563;28;41856;-71
2023/09/14 03:00:38;;;;;;;1.33;0.60;;;;;;;;;;5066845;28;41478;-71
2023/09/14 03:03:08;;;;;;;1.52;0.70;;;;;;;;;;5066727;28;42559;-71
2023/09/14 03:05:37;;;;;;;0.90;0.50;;;;;;;;;;5066311;28;40969;-71
2023/09/14 03:08:05;;;;;;;1.48;0.65;;;;;;;;;;5065825;28;38912;-71
2023/09/14 03:10:35;;;;;;;1.88;0.55;;;;;;;;;;5065837;28;42386;-71
2023/09/14 03:13:04;;;;;;;1.08;0.70;;;;;;;;;;5065140;28;40399;-71
2023/09/14 03:15:34;;;;;;;1.15;0.50;;;;;;;;;;5068965;28;40709;-71
2023/09/14 03:18:02;;;;;;;0.93;0.50;;;;;;;;;;5069375;28;41570;-71
2023/09/14 03:20:31;;;;;;;0.90;0.60;;;;;;;;;;5069938;28;40892;-71
2023/09/14 03:23:00;;;;;;;1.55;0.77;;;;;;;;;;5069739;28;41240;-71
2023/09/14 03:25:28;;;;;;;0.90;0.55;;;;;;;;;;5069625;28;40793;-71
2023/09/14 03:27:58;;;;;;;1.00;0.50;;;;;;;;;;5069062;28;39787;-71
2023/09/14 03:30:26;;;;;;;0.95;0.52;;;;;;;;;;5070685;28;41724;-71
2023/09/14 03:32:54;;;;;;;1.05;0.60;;;;;;;;;;5069977;28;39174;-71
2023/09/14 03:35:22;;;;;;;1.35;0.60;;;;;;;;;;5068934;28;40480;-71
2023/09/14 03:37:50;;;;;;;0.70;0.50;;;;;;;;;;5071010;28;41441;-71
2023/09/14 03:40:19;;;;;;;1.42;0.77;;;;;;;;;;5069415;28;39907;-71
2023/09/14 03:42:47;;;;;;;1.60;0.90;;;;;;;;;;5068724;28;39947;-71
2023/09/14 03:45:16;;;;;;;0.90;0.50;;;;;;;;;;5070052;28;41824;-71
2023/09/14 03:47:44;;;;;;;0.65;0.60;;;;;;;;;;5069608;28;39078;-71
2023/09/14 03:50:12;;;;;;;1.55;0.60;;;;;;;;;;5069114;28;39964;-71
2023/09/14 03:52:40;;;;;;;1.33;0.70;;;;;;;;;;5070489;28;42053;-71
2023/09/14 03:55:08;;;;;;;0.88;0.50;;;;;;;;;;5069480;28;39788;-71
2023/09/14 03:57:37;;;;;;;0.90;0.43;;;;;;;;;;5069368;28;42693;-71
2023/09/14 04:00:09;;;;;;;0.52;0.50;;;;;;;;;;5069464;28;39846;-71
2023/09/14 04:02:41;;;;;;;0.90;0.40;;;;;;;;;;5059142;28;43013;-71
2023/09/14 04:05:11;;;;;;;0.75;0.55;;;;;;;;;;5069604;28;40888;-71
2023/09/14 04:07:39;;;;;;;0.98;0.57;;;;;;;;;;5068513;28;39380;-71
2023/09/14 04:10:10;;;;;;;1.30;0.43;;;;;;;;;;5063152;28;42608;-71
2023/09/14 04:12:38;;;;;;;1.20;0.70;;;;;;;;;;5068602;28;40279;-71
2023/09/14 04:15:07;;;;;;;1.02;0.60;;;;;;;;;;5070932;28;40247;-72
2023/09/14 04:17:35;;;;;;;0.60;0.50;;;;;;;;;;5069010;28;43090;-71
2023/09/14 04:20:10;;;;;;;0.50;0.43;;;;;;;;;;5068596;28;38983;-71
2023/09/14 04:22:39;;;;;;;1.45;0.57;;;;;;;;;;5068495;28;40876;-71
2023/09/14 04:25:07;;;;;;;1.33;0.65;;;;;;;;;;5068264;28;40469;-71
2023/09/14 04:27:36;;;;;;;1.00;0.50;;;;;;;;;;5068847;28;40010;-71
2023/09/14 04:30:05;;;;;;;1.30;0.50;;;;;;;;;;5068443;28;40682;-71
2023/09/14 04:32:33;;;;;;;0.60;0.40;;;;;;;;;;5067555;28;41150;-71
2023/09/14 04:35:01;;;;;;;0.70;0.60;;;;;;;;;;5069011;28;40843;-71
2023/09/14 04:37:31;;;;;;;0.85;0.52;;;;;;;;;;5070027;28;42572;-71
2023/09/14 04:40:00;;;;;;;1.10;0.70;;;;;;;;;;5067817;28;39961;-71
2023/09/14 04:42:28;;;;;;;0.63;0.50;;;;;;;;;;5068193;28;40990;-71
2023/09/14 04:44:56;;;;;;;0.80;0.60;;;;;;;;;;5069065;28;42131;-71
2023/09/14 04:47:24;;;;;;;1.15;0.60;;;;;;;;;;5068873;28;40126;-71
2023/09/14 04:49:52;;;;;;;0.73;0.50;;;;;;;;;;5068969;28;40342;-71
2023/09/14 04:52:20;;;;;;;0.47;0.40;;;;;;;;;;5067053;28;40424;-71
2023/09/14 04:54:50;;;;;;;0.50;0.43;;;;;;;;;;5068526;28;38856;-71
2023/09/14 04:57:18;;;;;;;0.88;0.60;;;;;;;;;;5068069;28;42138;-71
2023/09/14 04:59:46;;;;;;;0.93;0.55;;;;;;;;;;5069633;28;33026;-71
2023/09/14 05:02:15;;;;;;;0.77;0.47;;;;;;;;;;5069110;28;41165;-71
2023/09/14 05:04:43;;;;;;;1.13;0.55;;;;;;;;;;5068009;28;40709;-71
2023/09/14 05:07:11;;;;;;;0.95;0.52;;;;;;;;;;5068048;28;39073;-71
2023/09/14 05:09:39;;;;;;;2.47;0.68;;;;;;;;;;5067521;28;41049;-71
2023/09/14 05:12:09;;;;;;;0.80;0.40;;;;;;;;;;5068198;28;40290;-71
2023/09/14 05:14:37;;;;;;;0.52;0.43;;;;;;;;;;5056123;28;40572;-71
2023/09/14 05:17:05;;;;;;;2.05;0.40;;;;;;;;;;5069693;28;42244;-71
2023/09/14 05:19:34;;;;;;;0.93;0.45;;;;;;;;;;5068244;28;42024;-71
2023/09/14 05:22:02;;;;;;;0.90;0.45;;;;;;;;;;5067506;28;41937;-71
2023/09/14 05:24:31;;;;;;;1.35;0.80;;;;;;;;;;5068111;28;41020;-71
2023/09/14 05:27:00;;;;;;;1.25;0.57;;;;;;;;;;5067830;28;40142;-71
2023/09/14 05:29:29;;;;;;;0.90;0.50;;;;;;;;;;5067584;28;40680;-71
2023/09/14 05:31:57;;;;;;;0.80;0.50;;;;;;;;;;5068564;28;42057;-71
2023/09/14 05:34:25;;;;;;;0.85;0.60;;;;;;;;;;5068550;28;40818;-71
2023/09/14 05:36:54;;;;;;;1.58;0.38;;;;;;;;;;5068340;28;41648;-71
2023/09/14 05:39:22;;;;;;;0.68;0.40;;;;;;;;;;5069457;28;42026;-71
2023/09/14 05:41:51;;;;;;;0.90;0.40;;;;;;;;;;5067071;28;39122;-71
2023/09/14 05:44:18;;;;;;;0.47;0.40;;;;;;;;;;5067686;28;41540;-71
2023/09/14 05:46:48;;;;;;;1.10;0.55;;;;;;;;;;5067031;28;40359;-71
2023/09/14 05:49:16;;;;;;;1.30;0.50;;;;;;;;;;5066335;28;40203;-71
2023/09/14 05:51:44;;;;;;;1.92;0.70;;;;;;;;;;5068911;28;43942;-72
2023/09/14 05:54:12;;;;;;;0.40;0.40;;;;;;;;;;5063143;28;39221;-71
2023/09/14 05:56:40;;;;;;;2.22;0.40;;;;;;;;;;5063983;28;41232;-71
2023/09/14 05:59:08;;;;;;;1.00;0.30;;;;;;;;;;5067197;28;41575;-71
2023/09/14 06:01:58;;;;;;;0.82;0.50;;;;;;;;;;5072701;28;38969;-71
2023/09/14 06:04:26;;;;;;;0.82;0.50;;;;;;;;;;5067124;28;41667;-71
2023/09/14 06:06:54;;;;;;;0.65;0.40;;;;;;;;;;5067032;28;40282;-71
2023/09/14 06:09:23;;;;;;;0.43;0.32;;;;;;;;;;5066616;28;41303;-71
2023/09/14 06:11:51;;;;;;;0.60;0.35;;;;;;;;;;5066299;28;42019;-71
2023/09/14 06:14:19;;;;;;;0.73;0.50;;;;;;;;;;5066399;28;40931;-71
2023/09/14 06:16:46;;;;;;;0.68;0.40;;;;;;;;;;5065951;28;42118;-71
2023/09/14 06:19:16;;;;;;;0.40;0.32;;;;;;;;;;5066583;28;41825;-71
2023/09/14 06:21:44;;;;;;;0.75;0.47;;;;;;;;;;5068041;28;39968;-71
2023/09/14 06:24:12;;;;;;;0.43;0.40;;;;;;;;;;5068114;28;42349;-71
2023/09/14 06:26:40;;;;;;;0.70;0.40;;;;;;;;;;5068193;28;42139;-71
2023/09/14 06:29:12;;;;;;;0.57;0.40;;;;;;;;;;5068453;28;42178;-71
2023/09/14 06:31:41;;;;;;;1.27;0.50;;;;;;;;;;5060808;28;42051;-71
2023/09/14 06:34:09;;;;;;;1.08;0.60;;;;;;;;;;5067268;28;38907;-71
2023/09/14 06:36:39;;;;;;;1.35;0.80;;;;;;;;;;5067733;28;42382;-71
2023/09/14 06:39:07;;;;;;;0.60;0.32;;;;;;;;;;5067402;28;41522;-71
2023/09/14 06:41:35;;;;;;;0.90;0.75;;;;;;;;;;5068024;28;40175;-71
2023/09/14 06:44:04;;;;;;;1.67;0.68;;;;;;;;;;5067471;28;41103;-71
2023/09/14 06:46:32;;;;;;;1.10;0.57;;;;;;;;;;5067868;28;42034;-71
2023/09/14 06:49:00;;;;;;;0.93;0.50;;;;;;;;;;5054469;28;41229;-71
2023/09/14 06:51:29;;;;;;;1.30;0.75;;;;;;;;;;5067005;28;41888;-71
2023/09/14 06:53:58;;;;;;;0.70;0.60;;;;;;;;;;5067761;28;40784;-71
2023/09/14 06:56:26;;;;;;;0.70;0.40;;;;;;;;;;5067925;28;41176;-71
2023/09/14 06:58:54;;;;;;;0.63;0.40;;;;;;;;;;5067382;28;42322;-71
2023/09/14 07:01:23;;;;;;;3.05;0.75;;;;;;;;;;5067715;28;40711;-71
2023/09/14 07:03:51;;;;;;;1.15;0.70;;;;;;;;;;5057565;28;41068;-71
2023/09/14 07:06:20;;;;;;;1.00;0.77;;;;;;;;;;5053764;28;41732;-71
2023/09/14 07:08:48;;;;;;;0.90;0.50;;;;;;;;;;5058641;28;41394;-71
2023/09/14 07:11:18;;;;;;;1.50;0.80;;;;;;;;;;5062042;28;42871;-71
2023/09/14 07:13:46;;;;;;;0.70;0.60;;;;;;;;;;5059677;28;40244;-71
2023/09/14 07:16:14;;;;;;;0.85;0.50;;;;;;;;;;5066157;28;42273;-72
2023/09/14 07:18:43;;;;;;;1.55;0.93;;;;;;;;;;5063596;28;41778;-71
2023/09/14 07:21:11;;;;;;;1.25;0.73;;;;;;;;;;5066184;28;39948;-70
2023/09/14 07:23:39;;;;;;;2.65;0.65;;;;;;;;;;5066853;28;42274;-71
2023/09/14 07:26:07;;;;;;;0.88;0.60;;;;;;;;;;5066874;28;41624;-71
2023/09/14 07:28:37;;;;;;;0.60;0.40;;;;;;;;;;5053611;28;41059;-71
2023/09/14 07:31:06;;;;;;;0.55;0.40;;;;;;;;;;5068388;28;41335;-71
2023/09/14 07:33:34;;;;;;;0.82;0.60;;;;;;;;;;5066821;28;40631;-71
2023/09/14 07:36:03;;;;;;;1.20;0.77;;;;;;;;;;5067001;28;42550;-71
2023/09/14 07:38:31;;;;;;;1.20;0.80;;;;;;;;;;5066369;28;42730;-71
2023/09/14 07:40:59;;;;;;;3.42;1.80;;;;;;;;;;5061131;28;40339;-72
2023/09/14 07:43:27;;;;;;;9.10;2.67;;;;;;;;;;5065353;28;41358;-72
2023/09/14 07:45:57;;;;;;;10.13;2.95;;;;;;;;;;5067281;28;41779;-72
2023/09/14 07:48:25;;;;;;;7.22;3.00;;;;;;;;;;5074470;28;38970;-72
2023/09/14 07:50:53;;;;;;;7.45;2.55;;;;;;;;;;5062371;28;42397;-72
2023/09/14 07:53:21;;;;;;;11.85;3.38;;;;;;;;;;5065726;28;40749;-71
2023/09/14 07:55:53;;;;;;;11.77;2.83;;;;;;;;;;5061206;28;42450;-72
2023/09/14 07:58:21;;;;;;;8.38;3.20;;;;;;;;;;5065714;28;42147;-73
2023/09/14 08:00:50;;;;;;;7.70;2.60;;;;;;;;;;5066459;28;40117;-73
2023/09/14 08:03:19;;;;;;;5.20;2.55;;;;;;;;;;5063938;28;42249;-72
2023/09/14 08:05:47;;;;;;;9.68;2.80;;;;;;;;;;5070110;28;42219;-72
2023/09/14 08:08:15;;;;;;;10.38;2.92;;;;;;;;;;5070655;28;40688;-72
2023/09/14 08:10:48;;;;;;;9.43;2.75;;;;;;;;;;5070021;28;42660;-71
2023/09/14 08:13:16;;;;;;;9.30;2.47;;;;;;;;;;5063595;28;41772;-72
2023/09/14 08:15:44;;;;;;;9.93;2.55;;;;;;;;;;5063826;28;40753;-73
2023/09/14 08:18:13;;;;;;;10.63;2.60;;;;;;;;;;5069068;28;41887;-73
2023/09/14 08:20:43;;;;;;;9.32;2.72;;;;;;;;;;5070715;28;39913;-72
2023/09/14 08:23:12;;;;;;;8.88;2.53;;;;;;;;;;5069256;28;42175;-72
2023/09/14 08:25:43;;;;;;;5.72;2.15;;;;;;;;;;5069845;28;42693;-73
2023/09/14 08:28:11;;;;;;;8.38;2.33;;;;;;;;;;5069987;28;41286;-74
2023/09/14 08:30:40;;;;;;;9.70;2.10;;;;;;;;;;5069839;28;41745;-73
2023/09/14 08:33:08;;;;;;;6.72;1.73;;;;;;;;;;5069620;28;41767;-72
2023/09/14 08:35:44;;;;;;;8.13;2.25;;;;;;;;;;5062117;28;41294;-72
2023/09/14 08:38:12;;;;;;;6.72;1.55;;;;;;;;;;5067080;28;41417;-72
2023/09/14 08:40:41;;;;;;;6.57;1.70;;;;;;;;;;5061010;28;40010;-72
2023/09/14 08:43:10;;;;;;;8.23;2.15;;;;;;;;;;5068925;28;42331;-72
2023/09/14 08:45:38;;;;;;;7.68;1.75;;;;;;;;;;5056283;28;42723;-72
2023/09/14 08:48:06;;;;;;;11.25;2.00;;;;;;;;;;5059090;28;40848;-73
2023/09/14 08:50:35;;;;;;;8.88;2.17;;;;;;;;;;5057746;28;42224;-72
2023/09/14 08:53:04;;;;;;;6.32;1.45;;;;;;;;;;5054823;28;41975;-72
2023/09/14 08:55:33;;;;;;;8.85;2.33;;;;;;;;;;5065037;28;40965;-75
2023/09/14 08:58:01;;;;;;;7.25;1.90;;;;;;;;;;5066159;28;40528;-73
2023/09/14 09:00:29;;;;;;;11.63;2.08;;;;;;;;;;5067975;28;42659;-71
2023/09/14 09:02:58;;;;;;;8.68;2.08;;;;;;;;;;5064578;28;42404;-73
2023/09/14 09:05:26;;;;;;;7.32;2.10;;;;;;;;;;5065398;28;42524;-73
2023/09/14 09:07:55;;;;;;;10.05;2.10;;;;;;;;;;5069110;28;41270;-73
2023/09/14 09:10:24;;;;;;;7.25;2.38;;;;;;;;;;5075222;28;41518;-74
2023/09/14 09:12:53;;;;;;;8.07;2.00;;;;;;;;;;5068159;28;43155;-73
2023/09/14 09:15:22;;;;;;;10.75;2.30;;;;;;;;;;5069813;28;39742;-74
2023/09/14 09:17:52;;;;;;;7.57;2.13;;;;;;;;;;5065807;28;42325;-74
2023/09/14 09:20:22;;;;;;;4.88;1.70;;;;;;;;;;5063348;28;42421;-74
2023/09/14 09:22:51;;;;;;;7.07;2.28;;;;;;;;;;5062166;28;41773;-74
2023/09/14 09:25:19;;;;;;;7.65;2.78;;;;;;;;;;5057246;28;41527;-73
2023/09/14 09:27:49;;;;;;;9.98;2.92;;;;;;;;;;5066853;28;40341;-73
2023/09/14 09:30:17;;;;;;;13.02;2.85;;;;;;;;;;5075951;28;40989;-73
2023/09/14 09:32:45;;;;;;;8.30;3.33;;;;;;;;;;5067193;28;42068;-73
2023/09/14 09:35:17;;;;;;;16.05;4.50;;;;;;;;;;5067186;28;40014;-73
2023/09/14 09:37:45;;;;;;;8.40;3.33;;;;;;;;;;5065357;28;41254;-73
2023/09/14 09:40:15;;;;;;;9.07;3.50;;;;;;;;;;5068103;28;20708;-73
2023/09/14 09:42:43;;;;;;;13.18;4.43;;;;;;;;;;5069204;28;41361;-75
2023/09/14 09:45:13;;;;;;;8.60;3.90;;;;;;;;;;5069371;28;42915;-72
2023/09/14 09:47:41;;;;;;;12.95;4.00;;;;;;;;;;5066123;28;39040;-74
2023/09/14 09:50:11;;;;;;;11.05;4.15;;;;;;;;;;5068696;28;42674;-73
2023/09/14 09:52:39;;;;;;;11.43;4.05;;;;;;;;;;5068659;28;43205;-74
2023/09/14 09:55:08;;;;;;;9.98;4.32;;;;;;;;;;5068013;28;40545;-75
2023/09/14 09:57:37;;;;;;;12.95;4.20;;;;;;;;;;5067353;28;42280;-73
2023/09/14 10:00:12;;;;;;;13.90;4.72;;;;;;;;;;5067858;28;43237;-72
2023/09/14 10:02:43;;;;;;;9.85;4.40;;;;;;;;;;5062106;28;38827;-72
2023/09/14 10:05:12;;;;;;;14.68;4.53;;;;;;;;;;5068619;28;41048;-74
2023/09/14 10:07:40;;;;;;;9.57;3.97;;;;;;;;;;5054229;28;40670;-71
2023/09/14 10:10:12;;;;;;;11.80;4.38;;;;;;;;;;5059306;28;41602;-72
2023/09/14 10:12:41;;;;;;;12.25;4.53;;;;;;;;;;5066186;28;42756;-73
2023/09/14 10:15:09;;;;;;;12.68;4.78;;;;;;;;;;5066068;28;40496;-71
2023/09/14 10:17:37;;;;;;;12.18;4.53;;;;;;;;;;5065532;28;41777;-71
2023/09/14 10:20:08;;;;;;;10.15;4.10;;;;;;;;;;5062078;28;41821;-71
2023/09/14 10:22:37;;;;;;;13.57;4.28;;;;;;;;;;5056932;28;42506;-72
2023/09/14 10:25:06;;;;;;;7.55;3.67;;;;;;;;;;5063196;28;40269;-71
2023/09/14 10:27:34;;;;;;;10.82;3.65;;;;;;;;;;5063898;28;42171;-72
2023/09/14 10:30:03;;;;;;;8.55;3.78;;;;;;;;;;5066104;28;41771;-72
2023/09/14 10:32:33;;;;;;;16.23;4.25;;;;;;;;;;5064607;28;42808;-71
2023/09/14 10:35:02;;;;;;;8.57;3.83;;;;;;;;;;5064664;28;40190;-71
2023/09/14 10:37:35;;;;;;;7.40;2.88;;;;;;;;;;5062102;28;41384;-71
2023/09/14 10:40:05;;;;;;;11.70;4.18;;;;;;;;;;5066999;28;42331;-71
2023/09/14 10:42:33;;;;;;;8.60;3.53;;;;;;;;;;5066294;28;41315;-72
2023/09/14 10:45:01;;;;;;;11.48;3.50;;;;;;;;;;5065595;28;42555;-73
2023/09/14 10:47:31;;;;;;;8.30;3.45;;;;;;;;;;5066777;28;41390;-73
2023/09/14 10:49:59;;;;;;;9.93;3.25;;;;;;;;;;5066089;28;39262;-74
2023/09/14 10:52:27;;;;;;;9.38;3.55;;;;;;;;;;5065898;28;41794;-71
2023/09/14 10:54:57;;;;;;;8.13;3.25;;;;;;;;;;5065412;28;41482;-72
2023/09/14 10:57:27;;;;;;;7.57;2.97;;;;;;;;;;5065952;28;41174;-73
2023/09/14 10:59:55;;;;;;;9.25;3.65;;;;;;;;;;5065658;28;41750;-70
2023/09/14 11:02:48;;;;;;;9.05;3.40;;;;;;;;;;5065267;28;40331;-71
2023/09/14 11:05:19;;;;;;;12.25;3.60;;;;;;;;;;5063365;28;42673;-71
2023/09/14 11:07:48;;;;;;;8.38;3.25;;;;;;;;;;5065439;28;41769;-72
2023/09/14 11:10:18;;;;;;;7.45;2.80;;;;;;;;;;5065972;28;40335;-73
2023/09/14 11:12:47;;;;;;;9.65;3.65;;;;;;;;;;5065736;28;42623;-71
2023/09/14 11:15:16;;;;;;;8.43;3.17;;;;;;;;;;5066032;28;40314;-71
2023/09/14 11:17:44;;;;;;;6.88;2.72;;;;;;;;;;5064477;28;40156;-71
2023/09/14 11:20:27;;;;;;;10.93;3.00;;;;;;;;;;5064433;28;42049;-71
2023/09/14 11:22:59;;;;;;;5.75;3.28;;;;;;;;;;5059809;28;40302;-74
2023/09/14 11:25:29;;;;;;;5.85;2.63;;;;;;;;;;5064195;28;40507;-72
2023/09/14 11:28:19;;;;;;;11.52;3.90;;;;;;;;;;5064776;28;42201;-72
2023/09/14 11:30:49;;;;;;;9.32;4.00;;;;;;;;;;5066283;28;41495;-73
2023/09/14 11:33:17;;;;;;;7.47;3.63;;;;;;;;;;5064640;28;41112;-73
2023/09/14 11:35:47;;;;;;;9.63;4.10;;;;;;;;;;5068544;28;41367;-73
2023/09/14 11:38:19;;;;;;;7.20;3.55;;;;;;;;;;5069715;28;41248;-74
2023/09/14 11:40:53;;;;;;;7.18;4.22;;;;;;;;;;5065538;28;42731;-73
2023/09/14 11:43:42;;;;;;;12.80;3.85;;;;;;;;;;5064506;28;40206;-73
2023/09/14 11:46:21;;;;;;;11.98;3.95;;;;;;;;;;5065557;28;41780;-72
2023/09/14 11:48:50;;;;;;;9.80;4.13;;;;;;;;;;5069221;28;43525;-72
2023/09/14 11:51:24;;;;;;;9.48;4.45;;;;;;;;;;5067638;28;41375;-72
2023/09/14 11:53:55;;;;;;;6.50;3.80;;;;;;;;;;5066588;28;42307;-73
2023/09/14 11:56:24;;;;;;;9.20;3.72;;;;;;;;;;5068704;28;41571;-73
2023/09/14 11:58:52;;;;;;;15.38;3.70;;;;;;;;;;5068769;28;42614;-73
2023/09/14 12:01:20;;;;;;;11.88;4.50;;;;;;;;;;5067245;28;42749;-73
2023/09/14 12:03:48;;;;;;;10.25;4.20;;;;;;;;;;5069131;28;41186;-74
2023/09/14 12:06:17;;;;;;;9.68;3.95;;;;;;;;;;5065593;28;41249;-74
2023/09/14 12:08:48;;;;;;;9.65;3.78;;;;;;;;;;5064191;28;41814;-74
2023/09/14 12:11:16;;;;;;;9.27;4.45;;;;;;;;;;5065141;28;40372;-74
2023/09/14 12:13:52;;;;;;;10.02;4.57;;;;;;;;;;5065301;28;41183;-74
2023/09/14 12:16:20;;;;;;;7.25;3.80;;;;;;;;;;5068453;28;42006;-74
2023/09/14 12:18:48;;;;;;;5.90;4.00;;;;;;;;;;5067812;28;40157;-74
2023/09/14 12:21:17;;;;;;;7.70;4.05;;;;;;;;;;5066726;28;42133;-74
2023/09/14 12:23:46;;;;;;;6.57;3.90;;;;;;;;;;5067431;28;40396;-74
2023/09/14 12:26:14;;;;;;;7.05;3.92;;;;;;;;;;5066557;28;40967;-74
2023/09/14 12:28:42;;;;;;;5.55;4.40;;;;;;;;;;5068277;28;41679;-74
2023/09/14 12:31:12;;;;;;;6.80;4.20;;;;;;;;;;5067288;28;40301;-74
2023/09/14 12:33:40;;;;;;;7.43;3.67;;;;;;;;;;5068862;28;42360;-74
2023/09/14 12:36:10;;;;;;;5.47;3.78;;;;;;;;;;5066264;28;42662;-74
2023/09/14 12:38:38;;;;;;;4.75;3.53;;;;;;;;;;5068741;28;39705;-74
2023/09/14 12:41:14;;;;;;;6.57;3.75;;;;;;;;;;5065058;28;42156;-74
2023/09/14 12:43:43;;;;;;;5.60;3.95;;;;;;;;;;5067205;28;41099;-74
2023/09/14 12:46:12;;;;;;;9.75;4.10;;;;;;;;;;5067472;28;41677;-74
2023/09/14 12:48:41;;;;;;;4.80;3.60;;;;;;;;;;5066454;28;41786;-73
2023/09/14 12:51:09;;;;;;;6.97;3.85;;;;;;;;;;5066736;28;40118;-75
2023/09/14 12:53:40;;;;;;;6.10;3.75;;;;;;;;;;5066370;28;42293;-73
2023/09/14 12:56:10;;;;;;;5.47;3.90;;;;;;;;;;5069343;28;42429;-74
2023/09/14 12:58:39;;;;;;;6.03;3.75;;;;;;;;;;5065989;28;40612;-74
2023/09/14 13:01:08;;;;;;;8.07;4.13;;;;;;;;;;5067002;28;41862;-72
2023/09/14 13:03:37;;;;;;;14.63;4.10;;;;;;;;;;5067327;28;42050;-74
2023/09/14 13:06:05;;;;;;;9.77;3.70;;;;;;;;;;5066958;28;42594;-74
2023/09/14 13:08:42;;;;;;;13.40;3.78;;;;;;;;;;5066730;28;41811;-71
2023/09/14 13:11:20;;;;;;;5.95;3.72;;;;;;;;;;5059599;28;40967;-71
2023/09/14 13:13:48;;;;;;;7.35;3.72;;;;;;;;;;5066361;28;41516;-73
2023/09/14 13:16:17;;;;;;;4.63;3.97;;;;;;;;;;5063637;28;42255;-71
2023/09/14 13:18:47;;;;;;;5.70;3.60;;;;;;;;;;5066701;28;41101;-71
2023/09/14 13:21:16;;;;;;;5.50;3.67;;;;;;;;;;5067434;28;41403;-73
2023/09/14 13:23:44;;;;;;;7.13;4.03;;;;;;;;;;5067758;28;41956;-73
2023/09/14 13:26:12;;;;;;;6.57;3.58;;;;;;;;;;5063345;28;40570;-73
2023/09/14 13:28:40;;;;;;;17.27;4.03;;;;;;;;;;5067783;28;42170;-71
2023/09/14 13:31:11;;;;;;;4.53;3.38;;;;;;;;;;5067104;28;40376;-72
2023/09/14 13:33:39;;;;;;;7.75;3.47;;;;;;;;;;5062976;28;42564;-73
2023/09/14 13:36:08;;;;;;;7.65;3.67;;;;;;;;;;5067655;28;43213;-73
2023/09/14 13:38:36;;;;;;;7.03;4.03;;;;;;;;;;5067520;28;40258;-73
2023/09/14 13:41:05;;;;;;;9.00;3.45;;;;;;;;;;5066886;28;42619;-74
2023/09/14 13:43:33;;;;;;;9.35;4.30;;;;;;;;;;5068114;28;41757;-73
2023/09/14 13:46:02;;;;;;;6.13;3.97;;;;;;;;;;5066759;28;40164;-72
2023/09/14 13:48:30;;;;;;;6.90;3.88;;;;;;;;;;5065654;28;41684;-71
2023/09/14 13:50:59;;;;;;;5.63;3.70;;;;;;;;;;5066917;28;39830;-75
2023/09/14 13:53:29;;;;;;;6.85;3.70;;;;;;;;;;5065923;28;42122;-73
2023/09/14 13:55:57;;;;;;;8.07;4.45;;;;;;;;;;5067631;28;43131;-75
2023/09/14 13:58:25;;;;;;;7.85;3.90;;;;;;;;;;5065681;28;39926;-74
2023/09/14 14:00:53;;;;;;;5.20;3.67;;;;;;;;;;5066589;28;41030;-71
2023/09/14 14:03:21;;;;;;;7.88;3.88;;;;;;;;;;5066786;28;41742;-72
2023/09/14 14:05:49;;;;;;;7.97;3.85;;;;;;;;;;5067145;28;39994;-72
2023/09/14 14:08:17;;;;;;;6.55;3.50;;;;;;;;;;5066529;28;42594;-73
2023/09/14 14:10:46;;;;;;;5.15;3.60;;;;;;;;;;5067044;28;40204;-72
2023/09/14 14:13:14;;;;;;;5.88;3.60;;;;;;;;;;5066787;28;42527;-72
2023/09/14 14:15:44;;;;;;;6.63;3.58;;;;;;;;;;5065883;28;41857;-71
2023/09/14 14:18:12;;;;;;;5.13;3.55;;;;;;;;;;5066238;28;40383;-73
2023/09/14 14:20:40;;;;;;;5.88;3.42;;;;;;;;;;5066401;28;41626;-72
2023/09/14 14:23:08;;;;;;;7.72;3.42;;;;;;;;;;5066587;28;41780;-73
2023/09/14 14:25:37;;;;;;;9.57;3.70;;;;;;;;;;5065996;28;40638;-73
2023/09/14 14:28:06;;;;;;;8.35;4.05;;;;;;;;;;5067030;28;42565;-72
2023/09/14 14:30:34;;;;;;;7.53;3.85;;;;;;;;;;5065088;28;41885;-72
2023/09/14 14:33:03;;;;;;;9.13;3.78;;;;;;;;;;5066799;28;42192;-71
2023/09/14 14:35:30;;;;;;;7.72;3.83;;;;;;;;;;5066292;28;41974;-71
2023/09/14 14:37:59;;;;;;;5.20;3.67;;;;;;;;;;5065712;28;39920;-71
2023/09/14 14:40:26;;;;;;;5.35;3.50;;;;;;;;;;5066534;28;42534;-72
2023/09/14 14:42:57;;;;;;;8.48;3.42;;;;;;;;;;5065305;28;42636;-72
2023/09/14 14:45:27;;;;;;;3.72;3.10;;;;;;;;;;5066691;28;40387;-71
2023/09/14 14:47:55;;;;;;;6.40;3.30;;;;;;;;;;5065997;28;41558;-71
2023/09/14 14:50:23;;;;;;;7.45;3.85;;;;;;;;;;5062367;28;42139;-71
2023/09/14 14:52:51;;;;;;;5.82;3.70;;;;;;;;;;5060773;28;40691;-73